Millvale, Pennsylvania
Current Conditions -  °F | °C
As of 8:53 AM on Wednesday 26 Nov 2014 (Local Time) from KAGC Reporting Station
Overcast Overcast  
Wind Chill: 26°   Ceiling: 7500
Heat Index: 32°   Visibility: 8mi
Dew Point: 24°   Wind: 7mph
Humidity: 73%   Direction: 330°NNW
Pressure: 30.04"   Gusts: NA
Location:  40.5015°N, 79.9773°W
Report Text: KAGC 261353Z 33006KT 8SM SCT038 BKN075 OVC095 00/M04 A3004 RMK AO2 SLP189 T00001044
Loading
Personal Weather Stations






























Interactive Weather Map New forecast layout! Learn more

10-Day Weather Forecast

Advertisements
Track Severe Weather on mobile